createdAt,value
2017-12-04T00:02:24.766Z,92.50
2017-12-04T00:04:52.371Z,92.40
2017-12-04T00:07:20.783Z,92.20
2017-12-04T00:09:48.341Z,92.20
2017-12-04T00:12:15.970Z,92.10
2017-12-04T00:14:43.616Z,92.30
2017-12-04T00:17:11.222Z,92.30
2017-12-04T00:19:38.809Z,91.90
2017-12-04T00:22:06.460Z,92.10
2017-12-04T00:24:34.061Z,92.10
2017-12-04T00:27:01.705Z,92.10
2017-12-04T00:29:29.314Z,92.30
2017-12-04T00:31:57.675Z,92.30
2017-12-04T00:34:25.306Z,92.30
2017-12-04T00:36:52.949Z,92.20
2017-12-04T00:39:20.579Z,92.20
2017-12-04T00:41:48.209Z,92.00
2017-12-04T00:44:15.870Z,92.20
2017-12-04T00:46:43.518Z,92.20
2017-12-04T00:49:11.394Z,92.20
2017-12-04T00:51:39.043Z,92.30
2017-12-04T00:54:06.785Z,92.50
2017-12-04T00:56:34.460Z,92.70
2017-12-04T00:59:02.217Z,92.60
2017-12-04T01:01:29.908Z,92.60
2017-12-04T01:03:57.600Z,92.60
2017-12-04T01:06:25.955Z,92.70
2017-12-04T01:08:53.498Z,92.70
2017-12-04T01:11:21.831Z,92.60
2017-12-04T01:13:50.160Z,92.60
2017-12-04T01:16:17.722Z,92.60
2017-12-04T01:18:45.285Z,92.60
2017-12-04T01:21:12.842Z,92.50
2017-12-04T01:23:40.414Z,92.50
2017-12-04T01:26:07.988Z,92.70
2017-12-04T01:28:35.554Z,92.80
2017-12-04T01:31:03.119Z,92.80
2017-12-04T01:33:31.461Z,92.80
2017-12-04T01:35:59.009Z,92.80
2017-12-04T01:38:26.574Z,92.70
2017-12-04T01:40:54.119Z,92.80
2017-12-04T01:43:21.717Z,92.70
2017-12-04T01:45:49.273Z,92.80
2017-12-04T01:48:16.847Z,92.70
2017-12-04T01:50:44.394Z,92.70
2017-12-04T01:53:11.952Z,92.70
2017-12-04T01:55:39.548Z,92.80
2017-12-04T01:58:07.874Z,93.00
2017-12-04T02:00:35.436Z,93.00
2017-12-04T02:03:03.001Z,93.00
2017-12-04T02:05:30.542Z,92.80
2017-12-04T02:07:58.106Z,93.00
2017-12-04T02:10:25.667Z,93.10
2017-12-04T02:12:53.258Z,93.00
2017-12-04T02:15:20.844Z,93.00
2017-12-04T02:17:49.188Z,92.80
2017-12-04T02:20:16.790Z,92.80
2017-12-04T02:22:45.166Z,92.80
2017-12-04T02:25:13.594Z,93.00
2017-12-04T02:27:41.185Z,92.90
2017-12-04T02:30:08.811Z,92.90
2017-12-04T02:32:36.406Z,92.90
2017-12-04T02:35:04.023Z,92.90
2017-12-04T02:37:31.611Z,93.00
2017-12-04T02:39:59.201Z,92.80
2017-12-04T02:42:27.543Z,92.90
2017-12-04T02:44:55.189Z,92.80
2017-12-04T02:47:22.765Z,92.60
2017-12-04T02:49:50.385Z,92.70
2017-12-04T02:52:17.966Z,92.80
2017-12-04T02:54:45.557Z,92.70
2017-12-04T02:57:13.172Z,92.80
2017-12-04T02:59:40.818Z,92.70
2017-12-04T03:02:08.379Z,92.70
2017-12-04T03:04:35.948Z,92.50
2017-12-04T03:07:03.553Z,92.60
2017-12-04T03:09:31.131Z,92.70
2017-12-04T03:11:58.733Z,92.70
2017-12-04T03:14:26.309Z,92.50
2017-12-04T03:16:53.924Z,92.70
2017-12-04T03:19:21.495Z,92.50
2017-12-04T03:21:49.856Z,92.60
2017-12-04T03:24:17.438Z,92.60
2017-12-04T03:26:45.773Z,92.80
2017-12-04T03:29:14.093Z,92.70
2017-12-04T03:31:42.446Z,92.80
2017-12-04T03:34:10.005Z,93.10
2017-12-04T03:36:37.589Z,92.80
2017-12-04T03:39:05.158Z,92.70
2017-12-04T03:41:33.478Z,92.60
2017-12-04T03:44:01.028Z,92.50
2017-12-04T03:46:28.586Z,92.60
2017-12-04T03:48:56.173Z,92.60
2017-12-04T03:51:23.742Z,92.50
2017-12-04T03:53:51.317Z,92.40
2017-12-04T03:56:18.890Z,92.50
2017-12-04T03:58:47.256Z,92.60
2017-12-04T04:01:14.836Z,92.60
2017-12-04T04:03:43.179Z,92.50
2017-12-04T04:06:10.737Z,92.40
2017-12-04T04:08:38.287Z,92.50
2017-12-04T04:11:05.848Z,92.30
2017-12-04T04:13:33.421Z,92.50
2017-12-04T04:16:01.007Z,92.40
2017-12-04T04:18:29.387Z,92.60
2017-12-04T04:20:57.761Z,92.40
2017-12-04T04:23:26.125Z,92.50
2017-12-04T04:25:53.703Z,92.50
2017-12-04T04:28:22.048Z,92.50
2017-12-04T04:30:49.613Z,92.40
2017-12-04T04:33:17.179Z,92.50
2017-12-04T04:35:44.744Z,92.60
2017-12-04T04:38:12.319Z,92.50
2017-12-04T04:40:40.660Z,92.70
2017-12-04T04:43:08.241Z,92.40
2017-12-04T04:45:35.808Z,92.50
2017-12-04T04:48:03.391Z,92.50
2017-12-04T04:50:31.720Z,92.50
2017-12-04T04:52:59.305Z,92.40
2017-12-04T04:55:26.877Z,92.50
2017-12-04T04:57:55.210Z,92.50
2017-12-04T05:00:22.805Z,92.50
2017-12-04T05:02:50.361Z,92.40
2017-12-04T05:05:17.958Z,92.50
2017-12-04T05:07:45.505Z,92.30
2017-12-04T05:10:13.843Z,92.50
2017-12-04T05:12:41.424Z,92.50
2017-12-04T05:15:08.989Z,92.40
2017-12-04T05:17:37.327Z,92.50
2017-12-04T05:20:04.882Z,92.50
2017-12-04T05:22:32.517Z,92.50
2017-12-04T05:25:00.097Z,92.60
2017-12-04T05:27:27.689Z,92.60
2017-12-04T05:29:55.300Z,92.50
2017-12-04T05:32:22.882Z,92.60
2017-12-04T05:34:50.444Z,92.60
2017-12-04T05:37:18.073Z,92.70
2017-12-04T05:39:46.402Z,92.60
2017-12-04T05:42:13.987Z,92.60
2017-12-04T05:44:41.590Z,92.80
2017-12-04T05:47:09.172Z,92.80
2017-12-04T05:49:36.729Z,92.60
2017-12-04T05:52:04.317Z,92.60
2017-12-04T05:54:31.885Z,92.70
2017-12-04T05:56:59.451Z,92.80
2017-12-04T05:59:27.029Z,92.80
2017-12-04T06:01:55.365Z,92.90
2017-12-04T06:04:22.931Z,92.90
2017-12-04T06:06:50.499Z,92.90
2017-12-04T06:09:18.098Z,92.80
2017-12-04T06:11:45.680Z,92.90
2017-12-04T06:14:13.266Z,93.40
2017-12-04T06:16:40.829Z,93.10
2017-12-04T06:19:08.413Z,93.00
2017-12-04T06:21:36.754Z,93.00
2017-12-04T06:24:04.316Z,93.00
2017-12-04T06:26:31.895Z,93.00
2017-12-04T06:28:59.444Z,93.00
2017-12-04T06:31:27.010Z,93.10
2017-12-04T06:33:54.566Z,92.80
2017-12-04T06:36:22.151Z,92.80
2017-12-04T06:38:49.724Z,92.90
2017-12-04T06:41:18.120Z,93.10
2017-12-04T06:43:45.708Z,93.10
2017-12-04T06:46:13.300Z,93.00
2017-12-04T06:48:40.879Z,93.00
2017-12-04T06:51:09.214Z,92.90
2017-12-04T06:53:36.790Z,92.90
2017-12-04T06:56:04.395Z,92.70
2017-12-04T06:58:31.999Z,92.80
2017-12-04T07:00:59.569Z,93.00
2017-12-04T07:03:27.107Z,93.00
2017-12-04T07:05:54.674Z,92.80
2017-12-04T07:08:22.231Z,92.70
2017-12-04T07:10:49.807Z,92.70
2017-12-04T07:13:17.399Z,92.80
2017-12-04T07:15:45.789Z,92.90
2017-12-04T07:18:14.118Z,92.70
2017-12-04T07:20:41.674Z,92.70
2017-12-04T07:23:09.238Z,92.70
2017-12-04T07:25:36.823Z,92.70
2017-12-04T07:28:04.398Z,92.80
2017-12-04T07:30:32.741Z,92.80
2017-12-04T07:33:00.292Z,92.80
2017-12-04T07:35:27.866Z,92.70
2017-12-04T07:37:55.462Z,92.80
2017-12-04T07:40:23.827Z,92.70
2017-12-04T07:42:51.492Z,92.70
2017-12-04T07:45:19.057Z,93.10
2017-12-04T07:47:47.410Z,92.40
2017-12-04T07:50:15.004Z,92.40
2017-12-04T07:52:43.372Z,92.60
2017-12-04T07:55:11.753Z,92.60
2017-12-04T07:57:40.106Z,92.60
2017-12-04T08:00:07.735Z,92.60
2017-12-04T08:02:35.471Z,92.50
2017-12-04T08:05:03.108Z,92.50
2017-12-04T08:07:30.748Z,92.40
2017-12-04T08:09:58.378Z,92.50
2017-12-04T08:12:26.007Z,92.60
2017-12-04T08:14:53.578Z,92.50
2017-12-04T08:17:26.482Z,92.40
2017-12-04T08:19:54.078Z,92.40
2017-12-04T08:22:21.689Z,92.20
2017-12-04T08:24:50.020Z,92.40
2017-12-04T08:27:18.535Z,92.40
2017-12-04T08:29:46.916Z,92.40
2017-12-04T08:32:15.245Z,92.30
2017-12-04T08:34:42.857Z,92.30
2017-12-04T08:37:11.192Z,92.20
2017-12-04T08:39:38.757Z,92.20
2017-12-04T08:42:06.322Z,92.10
2017-12-04T08:44:33.948Z,92.10
2017-12-04T08:47:06.535Z,92.00
2017-12-04T08:49:34.091Z,92.00
2017-12-04T08:52:01.669Z,92.00
2017-12-04T08:54:29.244Z,92.00
2017-12-04T08:56:56.814Z,91.90
2017-12-04T08:59:24.399Z,92.00
2017-12-04T09:01:52.724Z,92.00
2017-12-04T09:04:20.299Z,92.00
2017-12-04T09:06:47.903Z,91.90
2017-12-04T09:09:16.404Z,92.20
2017-12-04T09:11:43.982Z,91.90
2017-12-04T09:14:11.542Z,92.00
2017-12-04T09:16:39.165Z,92.00
2017-12-04T09:19:07.504Z,91.70
2017-12-04T09:21:35.084Z,91.70
2017-12-04T09:24:02.645Z,91.90
2017-12-04T09:26:31.021Z,91.90
2017-12-04T09:28:58.598Z,91.90
2017-12-04T09:31:26.934Z,92.00
2017-12-04T09:33:54.514Z,92.00
2017-12-04T09:36:22.060Z,92.00
2017-12-04T09:38:49.634Z,92.00
2017-12-04T09:41:17.184Z,91.80
2017-12-04T09:43:44.766Z,91.90
2017-12-04T09:46:13.161Z,91.70
2017-12-04T09:48:41.481Z,91.80
2017-12-04T09:51:09.054Z,91.70
2017-12-04T09:53:36.607Z,91.60
2017-12-04T09:56:04.146Z,91.60
2017-12-04T09:58:31.701Z,91.70
2017-12-04T10:00:59.270Z,91.60
2017-12-04T10:03:26.825Z,91.50
2017-12-04T10:05:54.372Z,91.70
2017-12-04T10:08:21.929Z,91.50
2017-12-04T10:10:49.484Z,91.60
2017-12-04T10:13:17.808Z,91.60
2017-12-04T10:15:45.383Z,91.60
2017-12-04T10:18:12.945Z,91.70
2017-12-04T10:20:40.500Z,91.90
2017-12-04T10:23:08.098Z,91.80
2017-12-04T10:25:36.434Z,91.60
2017-12-04T10:28:03.969Z,91.60
2017-12-04T10:30:31.558Z,91.50
2017-12-04T10:32:59.102Z,91.60
2017-12-04T10:35:26.654Z,91.60
2017-12-04T10:37:54.986Z,91.40
2017-12-04T10:40:23.314Z,91.40
2017-12-04T10:42:50.874Z,91.40
2017-12-04T10:45:18.449Z,91.20
2017-12-04T10:47:46.013Z,91.20
2017-12-04T10:50:13.593Z,91.20
2017-12-04T10:52:41.175Z,91.20
2017-12-04T10:55:09.639Z,91.20
2017-12-04T10:57:38.003Z,91.20
2017-12-04T11:00:05.561Z,90.90
2017-12-04T11:02:33.187Z,91.10
2017-12-04T11:05:00.735Z,91.40
2017-12-04T11:07:28.325Z,91.20
2017-12-04T11:09:55.901Z,91.30
2017-12-04T11:12:23.473Z,91.00
2017-12-04T11:14:51.028Z,91.20
2017-12-04T11:17:18.593Z,91.20
2017-12-04T11:19:46.190Z,91.10
2017-12-04T11:22:13.744Z,91.10
2017-12-04T11:24:41.463Z,91.10
2017-12-04T11:27:09.038Z,90.90
2017-12-04T11:29:36.614Z,90.70
2017-12-04T11:32:04.923Z,90.80
2017-12-04T11:34:32.484Z,90.80
2017-12-04T11:37:00.043Z,90.90
2017-12-04T11:39:27.622Z,91.10
2017-12-04T11:41:55.191Z,91.10
2017-12-04T11:44:22.771Z,91.00
2017-12-04T11:46:50.314Z,91.40
2017-12-04T11:49:17.882Z,91.00
2017-12-04T11:51:45.495Z,91.20
2017-12-04T11:54:13.068Z,91.20
2017-12-04T11:56:40.616Z,91.20
2017-12-04T11:59:16.687Z,91.30
2017-12-04T12:01:44.269Z,91.30
2017-12-04T12:04:11.848Z,91.30
2017-12-04T12:06:42.784Z,91.40
2017-12-04T12:09:10.362Z,91.40
2017-12-04T12:11:37.920Z,91.50
2017-12-04T12:14:05.514Z,91.60
2017-12-04T12:16:33.106Z,91.80
2017-12-04T12:19:00.695Z,91.80
2017-12-04T12:21:28.830Z,92.10
2017-12-04T12:23:56.480Z,91.80
2017-12-04T12:26:28.220Z,92.00
2017-12-04T12:28:56.599Z,92.30
2017-12-04T12:31:24.916Z,92.00
2017-12-04T12:33:52.504Z,92.00
2017-12-04T12:36:20.067Z,91.90
2017-12-04T12:38:47.910Z,91.90
2017-12-04T12:41:15.682Z,92.00
2017-12-04T12:43:43.260Z,92.00
2017-12-04T12:46:10.834Z,92.00
2017-12-04T12:48:38.408Z,92.00
2017-12-04T12:51:06.762Z,92.10
2017-12-04T12:53:34.317Z,92.10
2017-12-04T12:56:01.936Z,92.30
2017-12-04T12:58:29.477Z,92.20
2017-12-04T13:00:57.814Z,92.00
2017-12-04T13:03:25.371Z,92.00
2017-12-04T13:05:52.961Z,91.80
2017-12-04T13:08:21.291Z,92.20
2017-12-04T13:10:48.875Z,92.20
2017-12-04T13:13:16.450Z,92.30
2017-12-04T13:15:44.035Z,92.30
2017-12-04T13:18:12.385Z,92.40
2017-12-04T13:20:40.412Z,92.40
2017-12-04T13:23:08.045Z,92.40
2017-12-04T13:25:38.161Z,92.30
2017-12-04T13:28:05.728Z,92.40
2017-12-04T13:30:34.055Z,92.20
2017-12-04T13:33:13.520Z,92.20
2017-12-04T13:35:53.435Z,92.40
2017-12-04T13:38:21.026Z,92.80
2017-12-04T13:40:48.612Z,92.70
2017-12-04T13:43:16.954Z,93.00
2017-12-04T13:45:44.727Z,93.00
2017-12-04T13:48:12.360Z,93.00
2017-12-04T13:50:39.930Z,93.00
2017-12-04T13:53:07.509Z,93.20
2017-12-04T13:55:35.071Z,93.20
2017-12-04T13:58:02.653Z,93.20
2017-12-04T14:00:30.969Z,93.10
2017-12-04T14:02:58.534Z,93.10
2017-12-04T14:05:27.003Z,93.30
2017-12-04T14:07:54.573Z,93.30
2017-12-04T14:10:22.964Z,93.70
2017-12-04T14:12:50.533Z,93.40
2017-12-04T14:15:18.081Z,93.40
2017-12-04T14:17:46.016Z,93.50
2017-12-04T14:20:14.948Z,93.40
2017-12-04T14:22:43.148Z,93.50
2017-12-04T14:25:10.725Z,93.30
2017-12-04T14:27:39.073Z,93.40
2017-12-04T14:30:07.340Z,93.30
2017-12-04T14:32:35.010Z,93.30
2017-12-04T14:35:02.605Z,93.30
2017-12-04T14:37:30.945Z,93.50
2017-12-04T14:39:58.516Z,93.40
2017-12-04T14:42:26.314Z,93.40
2017-12-04T14:44:55.217Z,93.30
2017-12-04T14:47:23.533Z,93.40
2017-12-04T14:49:51.077Z,93.40
2017-12-04T14:52:18.673Z,93.50
2017-12-04T14:54:46.610Z,93.50
2017-12-04T14:57:14.198Z,93.40
2017-12-04T14:59:41.756Z,93.60
2017-12-04T15:02:09.364Z,93.60
2017-12-04T15:04:37.682Z,93.30
2017-12-04T15:07:05.248Z,93.30
2017-12-04T15:09:32.825Z,93.30
2017-12-04T15:12:00.382Z,93.30
2017-12-04T15:14:27.996Z,93.40
2017-12-04T15:16:56.359Z,93.60
2017-12-04T15:19:24.866Z,93.40
2017-12-04T15:21:53.215Z,93.40
2017-12-04T15:24:21.545Z,93.50
2017-12-04T15:26:49.112Z,93.50
2017-12-04T15:29:16.994Z,93.60
2017-12-04T15:31:44.667Z,93.50
2017-12-04T15:34:12.270Z,93.60
2017-12-04T15:36:39.871Z,93.40
2017-12-04T15:39:07.422Z,93.60
2017-12-04T15:41:35.080Z,93.50
2017-12-04T15:44:02.699Z,93.40
2017-12-04T15:46:31.080Z,93.40
2017-12-04T15:48:58.652Z,93.40
2017-12-04T15:51:27.786Z,93.60
2017-12-04T15:53:55.500Z,93.60
2017-12-04T15:56:23.103Z,93.50
2017-12-04T15:58:50.644Z,93.60
2017-12-04T16:01:18.246Z,93.50
2017-12-04T16:03:45.919Z,93.50
2017-12-04T16:06:13.487Z,93.60
2017-12-04T16:08:41.081Z,93.70
2017-12-04T16:11:09.388Z,93.60
2017-12-04T16:13:38.146Z,93.60
2017-12-04T16:16:05.961Z,93.30
2017-12-04T16:18:33.566Z,93.40
2017-12-04T16:21:01.149Z,93.40
2017-12-04T16:23:30.232Z,93.30
2017-12-04T16:25:57.933Z,93.10
2017-12-04T16:28:26.361Z,93.10
2017-12-04T16:30:54.100Z,93.10
2017-12-04T16:35:57.813Z,93.10
2017-12-04T16:38:25.876Z,93.00
2017-12-04T16:40:53.487Z,93.20
2017-12-04T16:43:21.130Z,93.20
2017-12-04T16:45:48.794Z,93.10
2017-12-04T16:48:17.091Z,93.20
2017-12-04T16:50:45.716Z,93.30
2017-12-04T16:53:13.317Z,93.30
2017-12-04T16:55:40.927Z,93.30
2017-12-04T16:58:08.538Z,93.40
2017-12-04T17:00:38.118Z,93.30
2017-12-04T17:03:06.172Z,93.40
2017-12-04T17:05:33.847Z,93.50
2017-12-04T17:08:01.421Z,93.40
2017-12-04T17:10:28.990Z,93.30
2017-12-04T17:12:56.765Z,93.30
2017-12-04T17:15:24.369Z,93.30
2017-12-04T17:17:51.962Z,93.40
2017-12-04T17:20:19.556Z,93.30
2017-12-04T17:22:47.909Z,93.50
2017-12-04T17:25:15.509Z,93.50
2017-12-04T17:27:43.930Z,93.50
2017-12-04T17:30:11.510Z,93.50
2017-12-04T17:32:39.081Z,93.50
2017-12-04T17:35:06.675Z,93.60
2017-12-04T17:37:35.010Z,93.40
2017-12-04T17:40:02.582Z,93.40
2017-12-04T17:42:30.154Z,93.50
2017-12-04T17:44:57.702Z,93.50
2017-12-04T17:47:25.453Z,93.20
2017-12-04T17:49:53.017Z,93.50
2017-12-04T17:52:20.597Z,93.50
2017-12-04T17:54:48.151Z,93.40
2017-12-04T17:57:16.075Z,93.40
2017-12-04T17:59:43.737Z,93.40
2017-12-04T18:04:53.147Z,93.30
2017-12-04T18:07:21.837Z,93.10
2017-12-04T18:09:53.565Z,93.30
2017-12-04T18:12:25.184Z,93.40
2017-12-04T18:14:55.172Z,93.40
2017-12-04T18:17:23.562Z,93.30
2017-12-04T18:19:51.939Z,93.30
2017-12-04T18:22:20.273Z,93.30
2017-12-04T18:24:47.857Z,93.30
2017-12-04T18:27:16.036Z,93.30
2017-12-04T18:29:44.796Z,93.10
2017-12-04T18:32:15.048Z,93.20
2017-12-04T18:34:43.405Z,93.20
2017-12-04T18:37:10.993Z,93.20
2017-12-04T18:39:39.362Z,93.20
2017-12-04T18:42:07.059Z,93.10
2017-12-04T18:44:34.634Z,93.10
2017-12-04T18:47:02.205Z,93.20
2017-12-04T18:49:29.770Z,93.30
2017-12-04T18:51:57.742Z,93.30
2017-12-04T18:54:25.415Z,93.30
2017-12-04T18:56:53.298Z,93.20
2017-12-04T18:59:22.038Z,93.10
2017-12-04T19:01:52.461Z,93.10
2017-12-04T19:04:22.929Z,93.30
2017-12-04T19:07:03.550Z,93.40
2017-12-04T19:10:26.300Z,93.40
2017-12-04T19:12:57.290Z,93.30
2017-12-04T19:15:27.877Z,93.30
2017-12-04T19:20:54.052Z,93.50
2017-12-04T19:23:28.464Z,93.60
2017-12-04T19:26:07.790Z,93.60
2017-12-04T19:28:36.699Z,93.60
2017-12-04T19:31:04.272Z,93.60
2017-12-04T19:33:31.880Z,93.50
2017-12-04T19:36:08.961Z,93.50
2017-12-04T19:38:45.815Z,93.50
2017-12-04T19:43:52.430Z,93.50
2017-12-04T19:46:22.666Z,93.50
2017-12-04T19:48:50.880Z,93.40
2017-12-04T19:51:20.594Z,93.40
2017-12-04T19:53:52.039Z,93.40
2017-12-04T19:56:21.314Z,93.60
2017-12-04T19:58:52.350Z,93.50
2017-12-04T20:01:21.664Z,93.50
2017-12-04T20:03:50.139Z,93.50
2017-12-04T20:06:17.725Z,93.50
2017-12-04T20:08:46.047Z,93.50
2017-12-04T20:11:16.788Z,93.50
2017-12-04T20:13:44.596Z,93.40
2017-12-04T20:16:16.008Z,93.30
2017-12-04T20:18:45.624Z,93.40
2017-12-04T20:21:16.352Z,93.30
2017-12-04T20:23:47.115Z,93.30
2017-12-04T20:26:15.835Z,93.50
2017-12-04T20:28:46.484Z,93.40
2017-12-04T20:31:17.211Z,93.50
2017-12-04T20:33:46.089Z,93.50
2017-12-04T20:36:16.429Z,93.30
2017-12-04T20:38:45.692Z,93.40
2017-12-04T20:41:15.507Z,93.60
2017-12-04T20:43:46.859Z,93.40
2017-12-04T20:46:15.189Z,93.40
2017-12-04T20:48:43.198Z,93.40
2017-12-04T20:51:14.024Z,93.60
2017-12-04T20:53:44.090Z,93.60
2017-12-04T20:56:13.641Z,93.60
2017-12-04T20:58:44.390Z,93.50
2017-12-04T21:01:13.594Z,93.60
2017-12-04T21:03:44.546Z,93.40
2017-12-04T21:06:13.963Z,93.50
2017-12-04T21:09:02.434Z,93.50
2017-12-04T21:11:53.506Z,93.50
2017-12-04T21:14:33.750Z,93.50
2017-12-04T21:17:14.975Z,93.50
2017-12-04T21:19:43.422Z,93.70
2017-12-04T21:22:15.008Z,93.40
2017-12-04T21:24:44.035Z,93.40
2017-12-04T21:27:13.325Z,93.40
2017-12-04T21:29:43.308Z,93.50
2017-12-04T21:32:10.917Z,93.40
2017-12-04T21:34:38.514Z,93.40
2017-12-04T21:37:10.552Z,93.50
2017-12-04T21:39:38.194Z,93.50
2017-12-04T21:42:05.790Z,93.40
2017-12-04T21:44:35.342Z,93.40
2017-12-04T21:47:04.887Z,93.40
2017-12-04T21:49:36.522Z,93.30
2017-12-04T21:52:05.118Z,93.70
2017-12-04T21:54:33.961Z,93.20
2017-12-04T21:57:06.336Z,93.30
2017-12-04T21:59:33.905Z,93.40
2017-12-04T22:02:03.614Z,93.40
2017-12-04T22:04:34.969Z,93.40
2017-12-04T22:07:05.505Z,93.40
2017-12-04T22:09:36.061Z,93.40
2017-12-04T22:12:04.366Z,93.50
2017-12-04T22:14:34.581Z,93.50
2017-12-04T22:17:05.178Z,93.40
2017-12-04T22:19:33.928Z,93.50
2017-12-04T22:22:04.855Z,93.50
2017-12-04T22:24:33.624Z,93.40
2017-12-04T22:27:04.610Z,93.50
2017-12-04T22:29:32.223Z,93.60
2017-12-04T22:32:00.625Z,93.40
2017-12-04T22:34:28.849Z,93.40
2017-12-04T22:36:56.416Z,93.30
2017-12-04T22:39:25.114Z,93.40
2017-12-04T22:41:55.689Z,93.40
2017-12-04T22:44:25.382Z,93.30
2017-12-04T22:46:53.747Z,93.30
2017-12-04T22:49:23.510Z,93.30
2017-12-04T22:51:54.038Z,93.40
2017-12-04T22:54:23.712Z,93.40
2017-12-04T22:56:53.910Z,93.30
2017-12-04T22:59:23.403Z,93.30
2017-12-04T23:01:54.348Z,93.40
2017-12-04T23:04:23.200Z,93.20
2017-12-04T23:06:50.800Z,93.00
2017-12-04T23:09:18.385Z,93.00
2017-12-04T23:11:46.728Z,92.90
2017-12-04T23:14:14.295Z,92.90
2017-12-04T23:16:41.861Z,93.00
2017-12-04T23:19:09.426Z,92.90
2017-12-04T23:21:37.010Z,92.90
2017-12-04T23:24:05.334Z,92.90
2017-12-04T23:26:32.909Z,92.90
2017-12-04T23:29:00.494Z,92.80
2017-12-04T23:31:28.087Z,92.90
2017-12-04T23:33:55.663Z,92.90
2017-12-04T23:36:23.261Z,92.60
2017-12-04T23:38:50.830Z,92.80
2017-12-04T23:41:18.407Z,92.70
2017-12-04T23:43:46.746Z,92.80
2017-12-04T23:46:14.321Z,92.80
2017-12-04T23:48:41.880Z,92.80
2017-12-04T23:51:09.443Z,93.10
2017-12-04T23:53:37.007Z,92.80
2017-12-04T23:56:04.665Z,92.80
2017-12-04T23:58:32.377Z,92.70
